Arbroath, United Kingdom
Current Conditions -  °F | °C
As of 3:50 PM on Saturday 25 Oct 2014 (Local Time) from EGQL Reporting Station
Rain Showers Rain Showers  
Wind Chill: 55°   Ceiling: Unl
Heat Index: 55°   Visibility: 6mi
Dew Point: 45°   Wind: 30mph
Humidity: 67%   Direction: 250°WSW
Pressure: 29.62"   Gusts: 44mph
Location:  56.56°N, 2.58°W
Report Text: EGQL 251450Z 25026G38KT 9999 6000SW VCSH SCT031 13/07 Q1003 WHT
Loading
Personal Weather Stations






























Interactive Weather Map
Tropical Storm Tracking
New forecast layout! Learn more

10-Day Weather Forecast

Advertisements
Track Severe Weather on mobile